Aviation Digital Data Service (ADDS)

Output produced by METARs form (2303 UTC 16 January 2018)
found at http://www.aviationweather.gov/adds/metars/
 
METAR text: KMGW 162257Z 00000KT 2SM -SN BR SCT011 OVC017 M05/M07 A3037 RMK AO2 P0000 T10501067
Conditions at: KMGW (MORGANTOWN , WV, US) observed 2257 UTC 16 January 2018
Temperature: -5.0°C (23°F)
Dewpoint: -6.7°C (20°F) [RH = 88%]
Pressure (altimeter): 30.37 inches Hg (1028.5 mb)
Winds: calm
Visibility: 2.00 miles (3.22 km)
Ceiling: 1700 feet AGL
Clouds: scattered clouds at 1100 feet AGL
overcast cloud deck at 1700 feet AGL
Weather: -SN BR  (light snow, mist)

METAR text: KMGW 162253Z 00000KT 1 1/2SM -SN BR BKN014 OVC020 M05/M07 A3037 RMK AO2 SLP299 P0002 T10501067
Conditions at: KMGW (MORGANTOWN , WV, US) observed 2253 UTC 16 January 2018
Temperature: -5.0°C (23°F)
Dewpoint: -6.7°C (20°F) [RH = 88%]
Pressure (altimeter): 30.37 inches Hg (1028.5 mb)
[Sea-level pressure: 1029.9 mb]
Winds: calm
Visibility: 1.50 miles (2.41 km)
Ceiling: 1400 feet AGL
Clouds: broken clouds at 1400 feet AGL
overcast cloud deck at 2000 feet AGL
Weather: -SN BR  (light snow, mist)

METAR text: KMGW 162239Z 00000KT 1 3/4SM -SN BR FEW009 BKN026 OVC030 M05/M07 A3036 RMK AO2 P0002 T10501072
Conditions at: KMGW (MORGANTOWN , WV, US) observed 2239 UTC 16 January 2018
Temperature: -5.0°C (23°F)
Dewpoint: -7.2°C (19°F) [RH = 85%]
Pressure (altimeter): 30.36 inches Hg (1028.2 mb)
Winds: calm
Visibility: 1.75 miles (2.82 km)
Ceiling: 2600 feet AGL
Clouds: few clouds at 900 feet AGL
broken clouds at 2600 feet AGL
overcast cloud deck at 3000 feet AGL
Weather: -SN BR  (light snow, mist)

METAR text: KMGW 162226Z 23004KT 1SM -SN BR FEW017 BKN025 OVC031 M05/M07 A3036 RMK AO2 P0001 T10501067
Conditions at: KMGW (MORGANTOWN , WV, US) observed 2226 UTC 16 January 2018
Temperature: -5.0°C (23°F)
Dewpoint: -6.7°C (20°F) [RH = 88%]
Pressure (altimeter): 30.36 inches Hg (1028.2 mb)
Winds: from the SW (230 degrees) at 5 MPH (4 knots; 2.1 m/s)
Visibility: 1.00 miles (1.61 km)
Ceiling: 2500 feet AGL
Clouds: few clouds at 1700 feet AGL
broken clouds at 2500 feet AGL
overcast cloud deck at 3100 feet AGL
Weather: -SN BR  (light snow, mist)

METAR text: KMGW 162153Z VRB03KT 3/4SM -SN BR BKN019 OVC025 M04/M07 A3035 RMK AO2 SLP295 P0001 T10441067
Conditions at: KMGW (MORGANTOWN , WV, US) observed 2153 UTC 16 January 2018
Temperature: -4.4°C (24°F)
Dewpoint: -6.7°C (20°F) [RH = 84%]
Pressure (altimeter): 30.35 inches Hg (1027.9 mb)
[Sea-level pressure: 1029.5 mb]
Winds: variable direction winds at 3 MPH (3 knots; 1.6 m/s)
Visibility: 0.75 miles (1.21 km)
Ceiling: 1900 feet AGL
Clouds: broken clouds at 1900 feet AGL
overcast cloud deck at 2500 feet AGL
Weather: -SN BR  (light snow, mist)

METAR text: KMGW 162144Z 00000KT 3/4SM -SN BR OVC025 M04/M07 A3035 RMK AO2 P0001 T10441067
Conditions at: KMGW (MORGANTOWN , WV, US) observed 2144 UTC 16 January 2018
Temperature: -4.4°C (24°F)
Dewpoint: -6.7°C (20°F) [RH = 84%]
Pressure (altimeter): 30.35 inches Hg (1027.9 mb)
Winds: calm
Visibility: 0.75 miles (1.21 km)
Ceiling: 2500 feet AGL
Clouds: overcast cloud deck at 2500 feet AGL
Weather: -SN BR  (light snow, mist)

METAR text: KMGW 162104Z 28006KT 1SM -SN BR OVC022 M04/M07 A3033 RMK AO2 P0001 T10441067
Conditions at: KMGW (MORGANTOWN , WV, US) observed 2104 UTC 16 January 2018
Temperature: -4.4°C (24°F)
Dewpoint: -6.7°C (20°F) [RH = 84%]
Pressure (altimeter): 30.33 inches Hg (1027.2 mb)
Winds: from the W (280 degrees) at 7 MPH (6 knots; 3.1 m/s)
Visibility: 1.00 miles (1.61 km)
Ceiling: 2200 feet AGL
Clouds: overcast cloud deck at 2200 feet AGL
Weather: -SN BR  (light snow, mist)

METAR text: KMGW 162053Z VRB05KT 3/4SM -SN BR OVC022 M04/M07 A3033 RMK AO2 SLP287 P0001 60003 T10441067 53004
Conditions at: KMGW (MORGANTOWN , WV, US) observed 2053 UTC 16 January 2018
Temperature: -4.4°C (24°F)
Dewpoint: -6.7°C (20°F) [RH = 84%]
Pressure (altimeter): 30.33 inches Hg (1027.2 mb)
[Sea-level pressure: 1028.7 mb]
Winds: variable direction winds at 6 MPH (5 knots; 2.6 m/s)
Visibility: 0.75 miles (1.21 km)
Ceiling: 2200 feet AGL
Clouds: overcast cloud deck at 2200 feet AGL
Weather: -SN BR  (light snow, mist)

METAR text: KMGW 162041Z 31006KT 3/4SM -SN BKN016 OVC022 M03/M06 A3033 RMK AO2 P0001 T10331061
Conditions at: KMGW (MORGANTOWN , WV, US) observed 2041 UTC 16 January 2018
Temperature: -3.3°C (26°F)
Dewpoint: -6.1°C (21°F) [RH = 81%]
Pressure (altimeter): 30.33 inches Hg (1027.2 mb)
Winds: from the NW (310 degrees) at 7 MPH (6 knots; 3.1 m/s)
Visibility: 0.75 miles (1.21 km)
Ceiling: 1600 feet AGL
Clouds: broken clouds at 1600 feet AGL
overcast cloud deck at 2200 feet AGL
Weather: -SN  (light snow)

METAR text: KMGW 162013Z 29005KT 1/2SM -SN FZFG FEW008 BKN011 OVC017 M03/M05 A3032 RMK AO2 P0001 T10281050
Conditions at: KMGW (MORGANTOWN , WV, US) observed 2013 UTC 16 January 2018
Temperature: -2.8°C (27°F)
Dewpoint: -5.0°C (23°F) [RH = 85%]
Pressure (altimeter): 30.32 inches Hg (1026.8 mb)
Winds: from the WNW (290 degrees) at 6 MPH (5 knots; 2.6 m/s)
Visibility: 0.50 miles (0.80 km)
Ceiling: 1100 feet AGL
Clouds: few clouds at 800 feet AGL
broken clouds at 1100 feet AGL
overcast cloud deck at 1700 feet AGL
Weather: -SN FZFG  (light snow, freezing fog)

METAR text: KMGW 162005Z 30007KT 1/2SM -SN FZFG SCT008 BKN018 OVC024 M02/M04 A3032 RMK AO2 P0000 T10221044
Conditions at: KMGW (MORGANTOWN , WV, US) observed 2005 UTC 16 January 2018
Temperature: -2.2°C (28°F)
Dewpoint: -4.4°C (24°F) [RH = 85%]
Pressure (altimeter): 30.32 inches Hg (1026.8 mb)
Winds: from the WNW (300 degrees) at 8 MPH (7 knots; 3.6 m/s)
Visibility: 0.50 miles (0.80 km)
Ceiling: 1800 feet AGL
Clouds: scattered clouds at 800 feet AGL
broken clouds at 1800 feet AGL
overcast cloud deck at 2400 feet AGL
Weather: -SN FZFG  (light snow, freezing fog)

METAR text: KMGW 161953Z 28003KT 3/4SM -SN BKN018 OVC024 M02/M04 A3031 RMK AO2 SLP276 P0002 T10171044
Conditions at: KMGW (MORGANTOWN , WV, US) observed 1953 UTC 16 January 2018
Temperature: -1.7°C (29°F)
Dewpoint: -4.4°C (24°F) [RH = 82%]
Pressure (altimeter): 30.31 inches Hg (1026.5 mb)
[Sea-level pressure: 1027.6 mb]
Winds: from the W (280 degrees) at 3 MPH (3 knots; 1.6 m/s)
Visibility: 0.75 miles (1.21 km)
Ceiling: 1800 feet AGL
Clouds: broken clouds at 1800 feet AGL
overcast cloud deck at 2400 feet AGL
Weather: -SN  (light snow)

METAR text: KMGW 161938Z 27003KT 3/4SM -SN BKN016 OVC022 M01/M04 A3031 RMK AO2 P0001 T10111039
Conditions at: KMGW (MORGANTOWN , WV, US) observed 1938 UTC 16 January 2018
Temperature: -1.1°C (30°F)
Dewpoint: -3.9°C (25°F) [RH = 81%]
Pressure (altimeter): 30.31 inches Hg (1026.5 mb)
Winds: from the W (270 degrees) at 3 MPH (3 knots; 1.6 m/s)
Visibility: 0.75 miles (1.21 km)
Ceiling: 1600 feet AGL
Clouds: broken clouds at 1600 feet AGL
overcast cloud deck at 2200 feet AGL
Weather: -SN  (light snow)

METAR text: KMGW 161928Z 27003KT 1SM -SN BR OVC018 M02/M04 A3031 RMK AO2 P0001 T10171039
Conditions at: KMGW (MORGANTOWN , WV, US) observed 1928 UTC 16 January 2018
Temperature: -1.7°C (29°F)
Dewpoint: -3.9°C (25°F) [RH = 85%]
Pressure (altimeter): 30.31 inches Hg (1026.5 mb)
Winds: from the W (270 degrees) at 3 MPH (3 knots; 1.6 m/s)
Visibility: 1.00 miles (1.61 km)
Ceiling: 1800 feet AGL
Clouds: overcast cloud deck at 1800 feet AGL
Weather: -SN BR  (light snow, mist)

METAR text: KMGW 161913Z 00000KT 2 1/2SM -SN OVC019 M01/M04 A3030 RMK AO2 P0001 T10111039
Conditions at: KMGW (MORGANTOWN , WV, US) observed 1913 UTC 16 January 2018
Temperature: -1.1°C (30°F)
Dewpoint: -3.9°C (25°F) [RH = 81%]
Pressure (altimeter): 30.30 inches Hg (1026.2 mb)
Winds: calm
Visibility: 2.50 miles (4.02 km)
Ceiling: 1900 feet AGL
Clouds: overcast cloud deck at 1900 feet AGL
Weather: -SN  (light snow)

METAR text: KMGW 161859Z VRB03KT 1 1/4SM -SN FEW009 OVC018 M01/M04 A3031 RMK AO2 P0001 T10111039
Conditions at: KMGW (MORGANTOWN , WV, US) observed 1859 UTC 16 January 2018
Temperature: -1.1°C (30°F)
Dewpoint: -3.9°C (25°F) [RH = 81%]
Pressure (altimeter): 30.31 inches Hg (1026.5 mb)
Winds: variable direction winds at 3 MPH (3 knots; 1.6 m/s)
Visibility: 1.25 miles (2.01 km)
Ceiling: 1800 feet AGL
Clouds: few clouds at 900 feet AGL
overcast cloud deck at 1800 feet AGL
Weather: -SN  (light snow)

METAR text: KMGW 161850Z 24003KT 2 1/2SM -SN SCT009 OVC018 M01/M04 A3031 RMK AO2 SLP276 P0000 T10111039
Conditions at: KMGW (MORGANTOWN , WV, US) observed 1850 UTC 16 January 2018
Temperature: -1.1°C (30°F)
Dewpoint: -3.9°C (25°F) [RH = 81%]
Pressure (altimeter): 30.31 inches Hg (1026.5 mb)
[Sea-level pressure: 1027.6 mb]
Winds: from the WSW (240 degrees) at 3 MPH (3 knots; 1.6 m/s)
Visibility: 2.50 miles (4.02 km)
Ceiling: 1800 feet AGL
Clouds: scattered clouds at 900 feet AGL
overcast cloud deck at 1800 feet AGL
Weather: -SN  (light snow)

METAR text: KMGW 161849Z 24003KT 2 1/2SM -SN SCT009 OVC018 M01/M04 A3031 RMK AO2 P0000
Conditions at: KMGW (MORGANTOWN , WV, US) observed 1849 UTC 16 January 2018
Temperature: -1.0°C (30°F)
Dewpoint: -4.0°C (25°F) [RH = 80%]
Pressure (altimeter): 30.31 inches Hg (1026.5 mb)
Winds: from the WSW (240 degrees) at 3 MPH (3 knots; 1.6 m/s)
Visibility: 2.50 miles (4.02 km)
Ceiling: 1800 feet AGL
Clouds: scattered clouds at 900 feet AGL
overcast cloud deck at 1800 feet AGL
Weather: -SN  (light snow)

METAR text: KMGW 161830Z 00000KT 3SM -SN BKN009 BKN014 OVC021 M01/M04 A3031 RMK AO2 P0000 T10111044
Conditions at: KMGW (MORGANTOWN , WV, US) observed 1830 UTC 16 January 2018
Temperature: -1.1°C (30°F)
Dewpoint: -4.4°C (24°F) [RH = 78%]
Pressure (altimeter): 30.31 inches Hg (1026.5 mb)
Winds: calm
Visibility: 3 miles (5 km)
Ceiling: 900 feet AGL
Clouds: broken clouds at 900 feet AGL
broken clouds at 1400 feet AGL
overcast cloud deck at 2100 feet AGL
Weather: -SN  (light snow)

METAR text: KMGW 161823Z 28003KT 1 3/4SM -SN BKN009 BKN014 OVC021 M01/M04 A3031 RMK AO2 P0000 T10111039
Conditions at: KMGW (MORGANTOWN , WV, US) observed 1823 UTC 16 January 2018
Temperature: -1.1°C (30°F)
Dewpoint: -3.9°C (25°F) [RH = 81%]
Pressure (altimeter): 30.31 inches Hg (1026.5 mb)
Winds: from the W (280 degrees) at 3 MPH (3 knots; 1.6 m/s)
Visibility: 1.75 miles (2.82 km)
Ceiling: 900 feet AGL
Clouds: broken clouds at 900 feet AGL
broken clouds at 1400 feet AGL
overcast cloud deck at 2100 feet AGL
Weather: -SN  (light snow)

METAR text: KMGW 161816Z 00000KT 1 1/2SM -SN BR SCT010 OVC021 M01/M03 A3031 RMK AO2 P0000 T10111033
Conditions at: KMGW (MORGANTOWN , WV, US) observed 1816 UTC 16 January 2018
Temperature: -1.1°C (30°F)
Dewpoint: -3.3°C (26°F) [RH = 85%]
Pressure (altimeter): 30.31 inches Hg (1026.5 mb)
Winds: calm
Visibility: 1.50 miles (2.41 km)
Ceiling: 2100 feet AGL
Clouds: scattered clouds at 1000 feet AGL
overcast cloud deck at 2100 feet AGL
Weather: -SN BR  (light snow, mist)

METAR text: KMGW 161801Z 00000KT 2 1/2SM -SN BR BKN010 BKN017 OVC024 M01/M03 A3032 RMK AO2 CIG 008V013 P0000 T10111033
Conditions at: KMGW (MORGANTOWN , WV, US) observed 1801 UTC 16 January 2018
Temperature: -1.1°C (30°F)
Dewpoint: -3.3°C (26°F) [RH = 85%]
Pressure (altimeter): 30.32 inches Hg (1026.8 mb)
Winds: calm
Visibility: 2.50 miles (4.02 km)
Ceiling: 1000 feet AGL
Clouds: broken clouds at 1000 feet AGL
broken clouds at 1700 feet AGL
overcast cloud deck at 2400 feet AGL
Weather: -SN BR  (light snow, mist)

METAR text: KMGW 161753Z 18003KT 1 3/4SM -SN BR SCT010 BKN016 OVC024 M02/M04 A3032 RMK AO2 SLP280 P0000 60001 T10171039 11011 21017 58020
Conditions at: KMGW (MORGANTOWN , WV, US) observed 1753 UTC 16 January 2018
Temperature: -1.7°C (29°F)
Dewpoint: -3.9°C (25°F) [RH = 85%]
Pressure (altimeter): 30.32 inches Hg (1026.8 mb)
[Sea-level pressure: 1028.0 mb]
Winds: from the S (180 degrees) at 3 MPH (3 knots; 1.6 m/s)
Visibility: 1.75 miles (2.82 km)
Ceiling: 1600 feet AGL
Clouds: scattered clouds at 1000 feet AGL
broken clouds at 1600 feet AGL
overcast cloud deck at 2400 feet AGL
Weather: -SN BR  (light snow, mist)

METAR text: KMGW 161733Z 00000KT 2 1/2SM -SN SCT009 BKN016 OVC023 M01/M04 A3033 RMK AO2 P0000 T10111039
Conditions at: KMGW (MORGANTOWN , WV, US) observed 1733 UTC 16 January 2018
Temperature: -1.1°C (30°F)
Dewpoint: -3.9°C (25°F) [RH = 81%]
Pressure (altimeter): 30.33 inches Hg (1027.2 mb)
Winds: calm
Visibility: 2.50 miles (4.02 km)
Ceiling: 1600 feet AGL
Clouds: scattered clouds at 900 feet AGL
broken clouds at 1600 feet AGL
overcast cloud deck at 2300 feet AGL
Weather: -SN  (light snow)

METAR text: KMGW 161713Z 20003KT 3SM -SN BR BKN009 BKN015 OVC023 M01/M03 A3034 RMK AO2 CIG 008V013 P0000 T10111033
Conditions at: KMGW (MORGANTOWN , WV, US) observed 1713 UTC 16 January 2018
Temperature: -1.1°C (30°F)
Dewpoint: -3.3°C (26°F) [RH = 85%]
Pressure (altimeter): 30.34 inches Hg (1027.5 mb)
Winds: from the SSW (200 degrees) at 3 MPH (3 knots; 1.6 m/s)
Visibility: 3 miles (5 km)
Ceiling: 900 feet AGL
Clouds: broken clouds at 900 feet AGL
broken clouds at 1500 feet AGL
overcast cloud deck at 2300 feet AGL
Weather: -SN BR  (light snow, mist)

METAR text: KMGW 161701Z 21005KT 2 1/2SM -SN BKN009 OVC014 M01/M04 A3035 RMK AO2 CIG 006V011 P0000 T10111039
Conditions at: KMGW (MORGANTOWN , WV, US) observed 1701 UTC 16 January 2018
Temperature: -1.1°C (30°F)
Dewpoint: -3.9°C (25°F) [RH = 81%]
Pressure (altimeter): 30.35 inches Hg (1027.9 mb)
Winds: from the SSW (210 degrees) at 6 MPH (5 knots; 2.6 m/s)
Visibility: 2.50 miles (4.02 km)
Ceiling: 900 feet AGL
Clouds: broken clouds at 900 feet AGL
overcast cloud deck at 1400 feet AGL
Weather: -SN  (light snow)

METAR text: KMGW 161653Z 22003KT 3SM -SN BKN009 OVC014 M01/M04 A3035 RMK AO2 CIG 006V013 SLP290 P0000 T10111039
Conditions at: KMGW (MORGANTOWN , WV, US) observed 1653 UTC 16 January 2018
Temperature: -1.1°C (30°F)
Dewpoint: -3.9°C (25°F) [RH = 81%]
Pressure (altimeter): 30.35 inches Hg (1027.9 mb)
[Sea-level pressure: 1029.0 mb]
Winds: from the SW (220 degrees) at 3 MPH (3 knots; 1.6 m/s)
Visibility: 3 miles (5 km)
Ceiling: 900 feet AGL
Clouds: broken clouds at 900 feet AGL
overcast cloud deck at 1400 feet AGL
Weather: -SN  (light snow)

METAR text: KMGW 161553Z 00000KT 3SM -SN BR BKN008 BKN011 OVC017 M02/M03 A3037 RMK AO2 CIG 005V009 SLP298 P0001 T10171033
Conditions at: KMGW (MORGANTOWN , WV, US) observed 1553 UTC 16 January 2018
Temperature: -1.7°C (29°F)
Dewpoint: -3.3°C (26°F) [RH = 89%]
Pressure (altimeter): 30.37 inches Hg (1028.5 mb)
[Sea-level pressure: 1029.8 mb]
Winds: calm
Visibility: 3 miles (5 km)
Ceiling: 800 feet AGL
Clouds: broken clouds at 800 feet AGL
broken clouds at 1100 feet AGL
overcast cloud deck at 1700 feet AGL
Weather: -SN BR  (light snow, mist)

METAR text: KMGW 161550Z 00000KT 3SM -SN BR BKN008 OVC017 M02/M03 A3037 RMK AO2 CIG 005V011 P0001
Conditions at: KMGW (MORGANTOWN , WV, US) observed 1550 UTC 16 January 2018
Temperature: -2.0°C (28°F)
Dewpoint: -3.0°C (27°F) [RH = 93%]
Pressure (altimeter): 30.37 inches Hg (1028.5 mb)
Winds: calm
Visibility: 3 miles (5 km)
Ceiling: 800 feet AGL
Clouds: broken clouds at 800 feet AGL
overcast cloud deck at 1700 feet AGL
Weather: -SN BR  (light snow, mist)

METAR text: KMGW 161545Z 00000KT 2 1/2SM -SN BR SCT008 BKN012 OVC017 M02/M03 A3037 RMK AO2 P0001 T10171033
Conditions at: KMGW (MORGANTOWN , WV, US) observed 1545 UTC 16 January 2018
Temperature: -1.7°C (29°F)
Dewpoint: -3.3°C (26°F) [RH = 89%]
Pressure (altimeter): 30.37 inches Hg (1028.5 mb)
Winds: calm
Visibility: 2.50 miles (4.02 km)
Ceiling: 1200 feet AGL
Clouds: scattered clouds at 800 feet AGL
broken clouds at 1200 feet AGL
overcast cloud deck at 1700 feet AGL
Weather: -SN BR  (light snow, mist)

METAR text: KMGW 161537Z 00000KT 2 1/2SM -SN BR SCT008 OVC017 M02/M03 A3037 RMK AO2 P0001 T10171033
Conditions at: KMGW (MORGANTOWN , WV, US) observed 1537 UTC 16 January 2018
Temperature: -1.7°C (29°F)
Dewpoint: -3.3°C (26°F) [RH = 89%]
Pressure (altimeter): 30.37 inches Hg (1028.5 mb)
Winds: calm
Visibility: 2.50 miles (4.02 km)
Ceiling: 1700 feet AGL
Clouds: scattered clouds at 800 feet AGL
overcast cloud deck at 1700 feet AGL
Weather: -SN BR  (light snow, mist)

METAR text: KMGW 161516Z 28003KT 1 3/4SM -SN BR FEW008 BKN015 OVC024 M02/M04 A3038 RMK AO2 P0001 T10171039
Conditions at: KMGW (MORGANTOWN , WV, US) observed 1516 UTC 16 January 2018
Temperature: -1.7°C (29°F)
Dewpoint: -3.9°C (25°F) [RH = 85%]
Pressure (altimeter): 30.38 inches Hg (1028.9 mb)
Winds: from the W (280 degrees) at 3 MPH (3 knots; 1.6 m/s)
Visibility: 1.75 miles (2.82 km)
Ceiling: 1500 feet AGL
Clouds: few clouds at 800 feet AGL
broken clouds at 1500 feet AGL
overcast cloud deck at 2400 feet AGL
Weather: -SN BR  (light snow, mist)

METAR text: KMGW 161510Z 27003KT 1 3/4SM -SN BR BKN013 OVC024 M02/M04 A3038 RMK AO2 P0000 T10171039
Conditions at: KMGW (MORGANTOWN , WV, US) observed 1510 UTC 16 January 2018
Temperature: -1.7°C (29°F)
Dewpoint: -3.9°C (25°F) [RH = 85%]
Pressure (altimeter): 30.38 inches Hg (1028.9 mb)
Winds: from the W (270 degrees) at 3 MPH (3 knots; 1.6 m/s)
Visibility: 1.75 miles (2.82 km)
Ceiling: 1300 feet AGL
Clouds: broken clouds at 1300 feet AGL
overcast cloud deck at 2400 feet AGL
Weather: -SN BR  (light snow, mist)

METAR text: KMGW 161457Z 00000KT 2 1/2SM -SN BR SCT012 BKN025 OVC034 M02/M04 A3038 RMK AO2 P0000 T10171039
Conditions at: KMGW (MORGANTOWN , WV, US) observed 1457 UTC 16 January 2018
Temperature: -1.7°C (29°F)
Dewpoint: -3.9°C (25°F) [RH = 85%]
Pressure (altimeter): 30.38 inches Hg (1028.9 mb)
Winds: calm
Visibility: 2.50 miles (4.02 km)
Ceiling: 2500 feet AGL
Clouds: scattered clouds at 1200 feet AGL
broken clouds at 2500 feet AGL
overcast cloud deck at 3400 feet AGL
Weather: -SN BR  (light snow, mist)

METAR text: KMGW 161453Z 00000KT 4SM -SN BR BKN012 BKN027 OVC034 M02/M04 A3038 RMK AO2 SNB01 SLP300 P0000 60000 T10171039 53006
Conditions at: KMGW (MORGANTOWN , WV, US) observed 1453 UTC 16 January 2018
Temperature: -1.7°C (29°F)
Dewpoint: -3.9°C (25°F) [RH = 85%]
Pressure (altimeter): 30.38 inches Hg (1028.9 mb)
[Sea-level pressure: 1030.0 mb]
Winds: calm
Visibility: 4 miles (6 km)
Ceiling: 1200 feet AGL
Clouds: broken clouds at 1200 feet AGL
broken clouds at 2700 feet AGL
overcast cloud deck at 3400 feet AGL
Weather: -SN BR  (light snow, mist)

METAR text: KMGW 161427Z 22003KT 4SM -SN BR FEW015 OVC033 M02/M04 A3037 RMK AO2 SNB01 P0000 T10171039
Conditions at: KMGW (MORGANTOWN , WV, US) observed 1427 UTC 16 January 2018
Temperature: -1.7°C (29°F)
Dewpoint: -3.9°C (25°F) [RH = 85%]
Pressure (altimeter): 30.37 inches Hg (1028.5 mb)
Winds: from the SW (220 degrees) at 3 MPH (3 knots; 1.6 m/s)
Visibility: 4 miles (6 km)
Ceiling: 3300 feet AGL
Clouds: few clouds at 1500 feet AGL
overcast cloud deck at 3300 feet AGL
Weather: -SN BR  (light snow, mist)

METAR text: KMGW 161358Z 21003KT 4SM BR OVC016 M02/M03 A3036 RMK AO2 T10171033
Conditions at: KMGW (MORGANTOWN , WV, US) observed 1358 UTC 16 January 2018
Temperature: -1.7°C (29°F)
Dewpoint: -3.3°C (26°F) [RH = 89%]
Pressure (altimeter): 30.36 inches Hg (1028.2 mb)
Winds: from the SSW (210 degrees) at 3 MPH (3 knots; 1.6 m/s)
Visibility: 4 miles (6 km)
Ceiling: 1600 feet AGL
Clouds: overcast cloud deck at 1600 feet AGL
Weather: BR  (mist)

METAR text: KMGW 161353Z 00000KT 7SM OVC015 M02/M03 A3036 RMK AO2 SLP295 T10171033
Conditions at: KMGW (MORGANTOWN , WV, US) observed 1353 UTC 16 January 2018
Temperature: -1.7°C (29°F)
Dewpoint: -3.3°C (26°F) [RH = 89%]
Pressure (altimeter): 30.36 inches Hg (1028.2 mb)
[Sea-level pressure: 1029.5 mb]
Winds: calm
Visibility: 7 miles (11 km)
Ceiling: 1500 feet AGL
Clouds: overcast cloud deck at 1500 feet AGL
Weather: no significant weather observed at this time

METAR text: KMGW 161339Z 00000KT 7SM OVC015 M02/M04 A3036 RMK AO2 T10171039
Conditions at: KMGW (MORGANTOWN , WV, US) observed 1339 UTC 16 January 2018
Temperature: -1.7°C (29°F)
Dewpoint: -3.9°C (25°F) [RH = 85%]
Pressure (altimeter): 30.36 inches Hg (1028.2 mb)
Winds: calm
Visibility: 7 miles (11 km)
Ceiling: 1500 feet AGL
Clouds: overcast cloud deck at 1500 feet AGL
Weather: no significant weather observed at this time

METAR text: KMGW 161328Z 00000KT 6SM BR BKN014 OVC032 M02/M04 A3036 RMK AO2 T10171039
Conditions at: KMGW (MORGANTOWN , WV, US) observed 1328 UTC 16 January 2018
Temperature: -1.7°C (29°F)
Dewpoint: -3.9°C (25°F) [RH = 85%]
Pressure (altimeter): 30.36 inches Hg (1028.2 mb)
Winds: calm
Visibility: 6 miles (10 km)
Ceiling: 1400 feet AGL
Clouds: broken clouds at 1400 feet AGL
overcast cloud deck at 3200 feet AGL
Weather: BR  (mist)

METAR text: KMGW 161320Z VRB03KT 5SM BR FEW007 BKN016 OVC021 M02/M03 A3036 RMK AO2 T10171033
Conditions at: KMGW (MORGANTOWN , WV, US) observed 1320 UTC 16 January 2018
Temperature: -1.7°C (29°F)
Dewpoint: -3.3°C (26°F) [RH = 89%]
Pressure (altimeter): 30.36 inches Hg (1028.2 mb)
Winds: variable direction winds at 3 MPH (3 knots; 1.6 m/s)
Visibility: 5 miles (8 km)
Ceiling: 1600 feet AGL
Clouds: few clouds at 700 feet AGL
broken clouds at 1600 feet AGL
overcast cloud deck at 2100 feet AGL
Weather: BR  (mist)

METAR text: KMGW 161311Z 26003KT 5SM BR FEW007 BKN012 OVC033 M02/M03 A3036 RMK AO2 T10171033
Conditions at: KMGW (MORGANTOWN , WV, US) observed 1311 UTC 16 January 2018
Temperature: -1.7°C (29°F)
Dewpoint: -3.3°C (26°F) [RH = 89%]
Pressure (altimeter): 30.36 inches Hg (1028.2 mb)
Winds: from the W (260 degrees) at 3 MPH (3 knots; 1.6 m/s)
Visibility: 5 miles (8 km)
Ceiling: 1200 feet AGL
Clouds: few clouds at 700 feet AGL
broken clouds at 1200 feet AGL
overcast cloud deck at 3300 feet AGL
Weather: BR  (mist)

METAR text: KMGW 161300Z 00000KT 3SM BR FEW007 BKN021 OVC033 M02/M03 A3036 RMK AO2 T10171033
Conditions at: KMGW (MORGANTOWN , WV, US) observed 1300 UTC 16 January 2018
Temperature: -1.7°C (29°F)
Dewpoint: -3.3°C (26°F) [RH = 89%]
Pressure (altimeter): 30.36 inches Hg (1028.2 mb)
Winds: calm
Visibility: 3 miles (5 km)
Ceiling: 2100 feet AGL
Clouds: few clouds at 700 feet AGL
broken clouds at 2100 feet AGL
overcast cloud deck at 3300 feet AGL
Weather: BR  (mist)

METAR text: KMGW 161253Z 00000KT 4SM BR FEW007 SCT011 OVC033 M02/M03 A3036 RMK AO2 SNB22E50 SLP294 P0000 T10171033
Conditions at: KMGW (MORGANTOWN , WV, US) observed 1253 UTC 16 January 2018
Temperature: -1.7°C (29°F)
Dewpoint: -3.3°C (26°F) [RH = 89%]
Pressure (altimeter): 30.36 inches Hg (1028.2 mb)
[Sea-level pressure: 1029.4 mb]
Winds: calm
Visibility: 4 miles (6 km)
Ceiling: 3300 feet AGL
Clouds: few clouds at 700 feet AGL
scattered clouds at 1100 feet AGL
overcast cloud deck at 3300 feet AGL
Weather: BR  (mist)

METAR text: KMGW 161248Z 24003KT 4SM -SN BR SCT011 SCT016 OVC033 M02/M03 A3036 RMK AO2 SNB22 P0000
Conditions at: KMGW (MORGANTOWN , WV, US) observed 1248 UTC 16 January 2018
Temperature: -2.0°C (28°F)
Dewpoint: -3.0°C (27°F) [RH = 93%]
Pressure (altimeter): 30.36 inches Hg (1028.2 mb)
Winds: from the WSW (240 degrees) at 3 MPH (3 knots; 1.6 m/s)
Visibility: 4 miles (6 km)
Ceiling: 3300 feet AGL
Clouds: scattered clouds at 1100 feet AGL
scattered clouds at 1600 feet AGL
overcast cloud deck at 3300 feet AGL
Weather: -SN BR  (light snow, mist)

METAR text: KMGW 161232Z 24003KT 2SM -SN BR FEW010 SCT016 OVC033 M02/M03 A3036 RMK AO2 SNB22 P0000 T10171033
Conditions at: KMGW (MORGANTOWN , WV, US) observed 1232 UTC 16 January 2018
Temperature: -1.7°C (29°F)
Dewpoint: -3.3°C (26°F) [RH = 89%]
Pressure (altimeter): 30.36 inches Hg (1028.2 mb)
Winds: from the WSW (240 degrees) at 3 MPH (3 knots; 1.6 m/s)
Visibility: 2.00 miles (3.22 km)
Ceiling: 3300 feet AGL
Clouds: few clouds at 1000 feet AGL
scattered clouds at 1600 feet AGL
overcast cloud deck at 3300 feet AGL
Weather: -SN BR  (light snow, mist)

METAR text: KMGW 161153Z 00000KT 4SM BR OVC034 M02/M03 A3036 RMK AO2 SNE42 SLP292 P0000 60003 70003 T10171033 10017 21017 53007
Conditions at: KMGW (MORGANTOWN , WV, US) observed 1153 UTC 16 January 2018
Temperature: -1.7°C (29°F)
Dewpoint: -3.3°C (26°F) [RH = 89%]
Pressure (altimeter): 30.36 inches Hg (1028.2 mb)
[Sea-level pressure: 1029.2 mb]
Winds: calm
Visibility: 4 miles (6 km)
Ceiling: 3400 feet AGL
Clouds: overcast cloud deck at 3400 feet AGL
Weather: BR  (mist)

METAR text: KMGW 161140Z AUTO 00000KT 3SM -SN BR OVC035 M02/M03 A3035 RMK AO2 P0000 T10171033
Conditions at: KMGW (MORGANTOWN , WV, US) observed 1140 UTC 16 January 2018
Temperature: -1.7°C (29°F)
Dewpoint: -3.3°C (26°F) [RH = 89%]
Pressure (altimeter): 30.35 inches Hg (1027.9 mb)
Winds: calm
Visibility: 3 miles (5 km)
Ceiling: 3500 feet AGL
Clouds: overcast cloud deck at 3500 feet AGL
Weather: -SN BR  (light snow, mist)

METAR text: KMGW 161053Z AUTO 00000KT 2 1/2SM -SN BR FEW007 OVC036 M02/M03 A3034 RMK AO2 SLP288 P0001 T10171028
Conditions at: KMGW (MORGANTOWN , WV, US) observed 1053 UTC 16 January 2018
Temperature: -1.7°C (29°F)
Dewpoint: -2.8°C (27°F) [RH = 92%]
Pressure (altimeter): 30.34 inches Hg (1027.5 mb)
[Sea-level pressure: 1028.8 mb]
Winds: calm
Visibility: 2.50 miles (4.02 km)
Ceiling: 3600 feet AGL
Clouds: few clouds at 700 feet AGL
overcast cloud deck at 3600 feet AGL
Weather: -SN BR  (light snow, mist)

METAR text: KMGW 161048Z AUTO 00000KT 2SM -SN BR FEW009 OVC036 M02/M03 A3035 RMK AO2 P0001
Conditions at: KMGW (MORGANTOWN , WV, US) observed 1048 UTC 16 January 2018
Temperature: -2.0°C (28°F)
Dewpoint: -3.0°C (27°F) [RH = 93%]
Pressure (altimeter): 30.35 inches Hg (1027.9 mb)
Winds: calm
Visibility: 2.00 miles (3.22 km)
Ceiling: 3600 feet AGL
Clouds: few clouds at 900 feet AGL
overcast cloud deck at 3600 feet AGL
Weather: -SN BR  (light snow, mist)

METAR text: KMGW 161036Z AUTO 00000KT 1 3/4SM -SN BR OVC036 M02/M03 A3035 RMK AO2 P0000 T10171033
Conditions at: KMGW (MORGANTOWN , WV, US) observed 1036 UTC 16 January 2018
Temperature: -1.7°C (29°F)
Dewpoint: -3.3°C (26°F) [RH = 89%]
Pressure (altimeter): 30.35 inches Hg (1027.9 mb)
Winds: calm
Visibility: 1.75 miles (2.82 km)
Ceiling: 3600 feet AGL
Clouds: overcast cloud deck at 3600 feet AGL
Weather: -SN BR  (light snow, mist)

METAR text: KMGW 161012Z AUTO 00000KT 2 1/2SM -SN BR FEW009 OVC034 M02/M03 A3034 RMK AO2 P0000 T10171033
Conditions at: KMGW (MORGANTOWN , WV, US) observed 1012 UTC 16 January 2018
Temperature: -1.7°C (29°F)
Dewpoint: -3.3°C (26°F) [RH = 89%]
Pressure (altimeter): 30.34 inches Hg (1027.5 mb)
Winds: calm
Visibility: 2.50 miles (4.02 km)
Ceiling: 3400 feet AGL
Clouds: few clouds at 900 feet AGL
overcast cloud deck at 3400 feet AGL
Weather: -SN BR  (light snow, mist)

METAR text: KMGW 161003Z AUTO 00000KT 2 1/2SM -SN BR FEW007 BKN028 OVC036 M02/M03 A3033 RMK AO2 P0000 T10171033
Conditions at: KMGW (MORGANTOWN , WV, US) observed 1003 UTC 16 January 2018
Temperature: -1.7°C (29°F)
Dewpoint: -3.3°C (26°F) [RH = 89%]
Pressure (altimeter): 30.33 inches Hg (1027.2 mb)
Winds: calm
Visibility: 2.50 miles (4.02 km)
Ceiling: 2800 feet AGL
Clouds: few clouds at 700 feet AGL
broken clouds at 2800 feet AGL
overcast cloud deck at 3600 feet AGL
Weather: -SN BR  (light snow, mist)

METAR text: KMGW 160953Z AUTO 00000KT 1 3/4SM -SN BR SCT007 BKN027 OVC037 M02/M03 A3034 RMK AO2 SLP285 P0002 T10171033
Conditions at: KMGW (MORGANTOWN , WV, US) observed 0953 UTC 16 January 2018
Temperature: -1.7°C (29°F)
Dewpoint: -3.3°C (26°F) [RH = 89%]
Pressure (altimeter): 30.34 inches Hg (1027.5 mb)
[Sea-level pressure: 1028.5 mb]
Winds: calm
Visibility: 1.75 miles (2.82 km)
Ceiling: 2700 feet AGL
Clouds: scattered clouds at 700 feet AGL
broken clouds at 2700 feet AGL
overcast cloud deck at 3700 feet AGL
Weather: -SN BR  (light snow, mist)

METAR text: KMGW 160951Z AUTO 00000KT 1 3/4SM -SN BR SCT007 BKN027 OVC037 M02/M03 A3033 RMK AO2 P0002
Conditions at: KMGW (MORGANTOWN , WV, US) observed 0951 UTC 16 January 2018
Temperature: -2.0°C (28°F)
Dewpoint: -3.0°C (27°F) [RH = 93%]
Pressure (altimeter): 30.33 inches Hg (1027.2 mb)
Winds: calm
Visibility: 1.75 miles (2.82 km)
Ceiling: 2700 feet AGL
Clouds: scattered clouds at 700 feet AGL
broken clouds at 2700 feet AGL
overcast cloud deck at 3700 feet AGL
Weather: -SN BR  (light snow, mist)

METAR text: KMGW 160915Z AUTO 00000KT 2SM -SN BR FEW007 OVC025 M02/M03 A3034 RMK AO2 P0001 T10171033
Conditions at: KMGW (MORGANTOWN , WV, US) observed 0915 UTC 16 January 2018
Temperature: -1.7°C (29°F)
Dewpoint: -3.3°C (26°F) [RH = 89%]
Pressure (altimeter): 30.34 inches Hg (1027.5 mb)
Winds: calm
Visibility: 2.00 miles (3.22 km)
Ceiling: 2500 feet AGL
Clouds: few clouds at 700 feet AGL
overcast cloud deck at 2500 feet AGL
Weather: -SN BR  (light snow, mist)

METAR text: KMGW 160853Z AUTO 00000KT 1 3/4SM -SN OVC026 M01/M04 A3034 RMK AO2 UPB0759E01SNB01 SLP286 P0000 60000 T10111039 51013
Conditions at: KMGW (MORGANTOWN , WV, US) observed 0853 UTC 16 January 2018
Temperature: -1.1°C (30°F)
Dewpoint: -3.9°C (25°F) [RH = 81%]
Pressure (altimeter): 30.34 inches Hg (1027.5 mb)
[Sea-level pressure: 1028.6 mb]
Winds: calm
Visibility: 1.75 miles (2.82 km)
Ceiling: 2600 feet AGL
Clouds: overcast cloud deck at 2600 feet AGL
Weather: -SN  (light snow)

METAR text: KMGW 160822Z AUTO 23003KT 2 1/2SM -SN OVC023 M01/M04 A3033 RMK AO2 UPB0759E01SNB01 P0000 T10061044
Conditions at: KMGW (MORGANTOWN , WV, US) observed 0822 UTC 16 January 2018
Temperature: -0.6°C (31°F)
Dewpoint: -4.4°C (24°F) [RH = 75%]
Pressure (altimeter): 30.33 inches Hg (1027.2 mb)
Winds: from the SW (230 degrees) at 3 MPH (3 knots; 1.6 m/s)
Visibility: 2.50 miles (4.02 km)
Ceiling: 2300 feet AGL
Clouds: overcast cloud deck at 2300 feet AGL
Weather: -SN  (light snow)

METAR text: KMGW 160753Z AUTO 24003KT 10SM OVC023 00/M05 A3032 RMK AO2 UPB0657E13 SLP279 P0000 T00001050
Conditions at: KMGW (MORGANTOWN , WV, US) observed 0753 UTC 16 January 2018
Temperature: 0.0°C (32°F)
Dewpoint: -5.0°C (23°F) [RH = 69%]
Pressure (altimeter): 30.32 inches Hg (1026.8 mb)
[Sea-level pressure: 1027.9 mb]
Winds: from the WSW (240 degrees) at 3 MPH (3 knots; 1.6 m/s)
Visibility: 10 or more miles (16+ km)
Ceiling: 2300 feet AGL
Clouds: overcast cloud deck at 2300 feet AGL
Weather: automated observation with no human augmentation;
there may or may not be significant weather present at this time

METAR text: KMGW 160728Z AUTO 23004KT 10SM BKN024 OVC040 00/M05 A3032 RMK AO2 UPB0657E13 P0000 T00001050
Conditions at: KMGW (MORGANTOWN , WV, US) observed 0728 UTC 16 January 2018
Temperature: 0.0°C (32°F)
Dewpoint: -5.0°C (23°F) [RH = 69%]
Pressure (altimeter): 30.32 inches Hg (1026.8 mb)
Winds: from the SW (230 degrees) at 5 MPH (4 knots; 2.1 m/s)
Visibility: 10 or more miles (16+ km)
Ceiling: 2400 feet AGL
Clouds: broken clouds at 2400 feet AGL
overcast cloud deck at 4000 feet AGL
Weather: automated observation with no human augmentation;
there may or may not be significant weather present at this time

METAR text: KMGW 160653Z AUTO VRB04KT 10SM OVC040 01/M06 A3032 RMK AO2 SLP279 T00061056
Conditions at: KMGW (MORGANTOWN , WV, US) observed 0653 UTC 16 January 2018
Temperature: 0.6°C (33°F)
Dewpoint: -5.6°C (22°F) [RH = 63%]
Pressure (altimeter): 30.32 inches Hg (1026.8 mb)
[Sea-level pressure: 1027.9 mb]
Winds: variable direction winds at 5 MPH (4 knots; 2.1 m/s)
Visibility: 10 or more miles (16+ km)
Ceiling: 4000 feet AGL
Clouds: overcast cloud deck at 4000 feet AGL
Weather: automated observation with no human augmentation;
there may or may not be significant weather present at this time

METAR text: KMGW 160553Z AUTO 22007KT 10SM OVC044 02/M06 A3030 RMK AO2 SLP273 T00171056 10022 21006 53004
Conditions at: KMGW (MORGANTOWN , WV, US) observed 0553 UTC 16 January 2018
Temperature: 1.7°C (35°F)
Dewpoint: -5.6°C (22°F) [RH = 58%]
Pressure (altimeter): 30.30 inches Hg (1026.2 mb)
[Sea-level pressure: 1027.3 mb]
Winds: from the SW (220 degrees) at 8 MPH (7 knots; 3.6 m/s)
Visibility: 10 or more miles (16+ km)
Ceiling: 4400 feet AGL
Clouds: overcast cloud deck at 4400 feet AGL
Weather: automated observation with no human augmentation;
there may or may not be significant weather present at this time

METAR text: KMGW 160453Z AUTO 22008KT 10SM OVC046 02/M06 A3029 RMK AO2 SLP270 T00221056 400221100
Conditions at: KMGW (MORGANTOWN , WV, US) observed 0453 UTC 16 January 2018
Temperature: 2.2°C (36°F)
Dewpoint: -5.6°C (22°F) [RH = 56%]
Pressure (altimeter): 30.29 inches Hg (1025.8 mb)
[Sea-level pressure: 1027.0 mb]
Winds: from the SW (220 degrees) at 9 MPH (8 knots; 4.2 m/s)
Visibility: 10 or more miles (16+ km)
Ceiling: 4600 feet AGL
Clouds: overcast cloud deck at 4600 feet AGL
Weather: automated observation with no human augmentation;
there may or may not be significant weather present at this time

METAR text: KMGW 160353Z 20004KT 10SM OVC046 02/M06 A3029 RMK AO2 SLP270 T00171056
Conditions at: KMGW (MORGANTOWN , WV, US) observed 0353 UTC 16 January 2018
Temperature: 1.7°C (35°F)
Dewpoint: -5.6°C (22°F) [RH = 58%]
Pressure (altimeter): 30.29 inches Hg (1025.8 mb)
[Sea-level pressure: 1027.0 mb]
Winds: from the SSW (200 degrees) at 5 MPH (4 knots; 2.1 m/s)
Visibility: 10 or more miles (16+ km)
Ceiling: 4600 feet AGL
Clouds: overcast cloud deck at 4600 feet AGL
Weather: no significant weather observed at this time

METAR text: KMGW 160253Z 16004KT 10SM OVC049 00/M06 A3028 RMK AO2 SLP271 T00001056 55005
Conditions at: KMGW (MORGANTOWN , WV, US) observed 0253 UTC 16 January 2018
Temperature: 0.0°C (32°F)
Dewpoint: -5.6°C (22°F) [RH = 66%]
Pressure (altimeter): 30.28 inches Hg (1025.5 mb)
[Sea-level pressure: 1027.1 mb]
Winds: from the SSE (160 degrees) at 5 MPH (4 knots; 2.1 m/s)
Visibility: 10 or more miles (16+ km)
Ceiling: 4900 feet AGL
Clouds: overcast cloud deck at 4900 feet AGL
Weather: no significant weather observed at this time

METAR text: KMGW 160153Z 00000KT 10SM OVC050 M01/M05 A3028 RMK AO2 SLP269 T10061050
Conditions at: KMGW (MORGANTOWN , WV, US) observed 0153 UTC 16 January 2018
Temperature: -0.6°C (31°F)
Dewpoint: -5.0°C (23°F) [RH = 72%]
Pressure (altimeter): 30.28 inches Hg (1025.5 mb)
[Sea-level pressure: 1026.9 mb]
Winds: calm
Visibility: 10 or more miles (16+ km)
Ceiling: 5000 feet AGL
Clouds: overcast cloud deck at 5000 feet AGL
Weather: no significant weather observed at this time

METAR text: KMGW 160053Z 36003KT 10SM OVC055 00/M06 A3029 RMK AO2 SLP273 T00001056
Conditions at: KMGW (MORGANTOWN , WV, US) observed 0053 UTC 16 January 2018
Temperature: 0.0°C (32°F)
Dewpoint: -5.6°C (22°F) [RH = 66%]
Pressure (altimeter): 30.29 inches Hg (1025.8 mb)
[Sea-level pressure: 1027.3 mb]
Winds: from the N (360 degrees) at 3 MPH (3 knots; 1.6 m/s)
Visibility: 10 or more miles (16+ km)
Ceiling: 5500 feet AGL
Clouds: overcast cloud deck at 5500 feet AGL
Weather: no significant weather observed at this time

METAR text: KMGW 152353Z 00000KT 10SM SCT042 BKN055 OVC070 01/M06 A3030 RMK AO2 SLP278 T00061061 10011 21017 53003
Conditions at: KMGW (MORGANTOWN , WV, US) observed 2353 UTC 15 January 2018
Temperature: 0.6°C (33°F)
Dewpoint: -6.1°C (21°F) [RH = 61%]
Pressure (altimeter): 30.30 inches Hg (1026.2 mb)
[Sea-level pressure: 1027.8 mb]
Winds: calm
Visibility: 10 or more miles (16+ km)
Ceiling: 5500 feet AGL
Clouds: scattered clouds at 4200 feet AGL
broken clouds at 5500 feet AGL
overcast cloud deck at 7000 feet AGL
Weather: no significant weather observed at this time